createdAt,value
2018-01-26T00:00:31.424Z,5.20
2018-01-26T00:02:59.688Z,5.20
2018-01-26T00:05:27.956Z,5.30
2018-01-26T00:07:56.223Z,5.30
2018-01-26T00:10:24.649Z,5.30
2018-01-26T00:12:52.935Z,5.40
2018-01-26T00:15:21.196Z,5.30
2018-01-26T00:17:49.464Z,5.30
2018-01-26T00:20:17.724Z,5.40
2018-01-26T00:22:46.750Z,5.50
2018-01-26T00:25:15.039Z,5.50
2018-01-26T00:27:43.303Z,5.60
2018-01-26T00:30:11.584Z,5.50
2018-01-26T00:32:39.845Z,5.40
2018-01-26T00:35:08.158Z,5.40
2018-01-26T00:37:36.420Z,5.30
2018-01-26T00:40:04.699Z,5.20
2018-01-26T00:42:33.932Z,5.20
2018-01-26T00:45:02.221Z,5.30
2018-01-26T00:47:30.485Z,5.10
2018-01-26T00:49:58.745Z,5.10
2018-01-26T00:52:27.045Z,5.10
2018-01-26T00:54:55.322Z,5.20
2018-01-26T00:57:23.588Z,5.10
2018-01-26T00:59:52.624Z,5.10
2018-01-26T01:02:20.900Z,5.10
2018-01-26T01:04:49.157Z,5.10
2018-01-26T01:07:17.513Z,5.10
2018-01-26T01:09:45.785Z,5.10
2018-01-26T01:12:14.169Z,5.00
2018-01-26T01:14:42.496Z,5.10
2018-01-26T01:17:10.762Z,5.10
2018-01-26T01:19:39.051Z,5.00
2018-01-26T01:22:07.313Z,5.10
2018-01-26T01:24:35.597Z,5.00
2018-01-26T01:27:03.866Z,5.00
2018-01-26T01:29:32.136Z,5.00
2018-01-26T01:32:00.420Z,5.00
2018-01-26T01:34:28.713Z,5.00
2018-01-26T01:36:56.984Z,4.90
2018-01-26T01:39:25.263Z,4.90
2018-01-26T01:41:53.527Z,4.90
2018-01-26T01:44:21.809Z,4.90
2018-01-26T01:46:50.066Z,5.00
2018-01-26T01:49:18.374Z,5.00
2018-01-26T01:51:46.444Z,4.90
2018-01-26T01:54:14.712Z,4.80
2018-01-26T01:56:42.996Z,4.80
2018-01-26T01:59:11.252Z,4.80
2018-01-26T02:01:39.509Z,4.80
2018-01-26T02:04:07.786Z,4.70
2018-01-26T02:06:36.062Z,4.60
2018-01-26T02:09:03.828Z,4.40
2018-01-26T02:11:32.095Z,4.30
2018-01-26T02:14:00.388Z,4.40
2018-01-26T02:16:29.073Z,4.40
2018-01-26T02:18:57.358Z,4.50
2018-01-26T02:21:25.636Z,4.40
2018-01-26T02:23:53.910Z,4.40
2018-01-26T02:26:25.937Z,4.40
2018-01-26T02:28:54.206Z,4.40
2018-01-26T02:31:22.466Z,4.30
2018-01-26T02:33:51.484Z,4.20
2018-01-26T02:36:20.174Z,4.20
2018-01-26T02:38:48.430Z,4.20
2018-01-26T02:41:16.685Z,4.10
2018-01-26T02:43:44.973Z,4.10
2018-01-26T02:46:13.222Z,4.10
2018-01-26T02:48:41.561Z,4.10
2018-01-26T02:51:10.084Z,4.20
2018-01-26T02:53:38.347Z,4.30
2018-01-26T02:56:06.762Z,4.20
2018-01-26T02:58:35.021Z,4.30
2018-01-26T03:01:03.309Z,4.40
2018-01-26T03:03:31.594Z,4.40
2018-01-26T03:05:59.852Z,4.50
2018-01-26T03:08:28.119Z,4.50
2018-01-26T03:10:56.380Z,4.60
2018-01-26T03:13:24.975Z,4.60
2018-01-26T03:15:53.232Z,4.60
2018-01-26T03:18:22.381Z,4.50
2018-01-26T03:20:50.661Z,4.50
2018-01-26T03:23:18.912Z,4.50
2018-01-26T03:25:47.187Z,4.50
2018-01-26T03:28:15.447Z,4.50
2018-01-26T03:30:43.740Z,4.50
2018-01-26T03:33:12.016Z,4.40
2018-01-26T03:35:40.283Z,4.40
2018-01-26T03:38:08.557Z,4.40
2018-01-26T03:40:36.846Z,4.30
2018-01-26T03:43:05.116Z,4.30
2018-01-26T03:45:33.377Z,4.30
2018-01-26T03:48:01.660Z,4.30
2018-01-26T03:50:29.920Z,4.40
2018-01-26T03:52:59.423Z,4.30
2018-01-26T03:55:28.460Z,4.40
2018-01-26T03:57:56.721Z,4.40
2018-01-26T04:00:24.995Z,4.40
2018-01-26T04:02:53.258Z,4.30
2018-01-26T04:05:21.536Z,4.30
2018-01-26T04:07:50.030Z,4.40
2018-01-26T04:10:19.068Z,4.50
2018-01-26T04:12:47.353Z,4.50
2018-01-26T04:15:15.824Z,4.50
2018-01-26T04:17:44.098Z,4.40
2018-01-26T04:20:12.359Z,4.40
2018-01-26T04:22:41.853Z,4.40
2018-01-26T04:25:10.135Z,4.40
2018-01-26T04:27:38.394Z,4.30
2018-01-26T04:30:06.479Z,4.40
2018-01-26T04:32:34.738Z,4.30
2018-01-26T04:35:03.022Z,4.30
2018-01-26T04:37:31.297Z,4.20
2018-01-26T04:39:59.571Z,4.30
2018-01-26T04:42:27.838Z,4.30
2018-01-26T04:44:56.240Z,4.20
2018-01-26T04:47:24.537Z,4.30
2018-01-26T04:49:52.925Z,4.30
2018-01-26T04:52:21.197Z,4.40
2018-01-26T04:54:49.476Z,4.40
2018-01-26T04:57:17.750Z,4.40
2018-01-26T04:59:46.003Z,4.40
2018-01-26T05:02:14.274Z,4.40
2018-01-26T05:04:42.544Z,4.50
2018-01-26T05:07:10.809Z,4.50
2018-01-26T05:09:39.073Z,4.50
2018-01-26T05:12:07.385Z,4.50
2018-01-26T05:14:35.644Z,4.40
2018-01-26T05:17:04.759Z,4.40
2018-01-26T05:19:33.262Z,4.30
2018-01-26T05:22:02.294Z,4.20
2018-01-26T05:24:30.692Z,4.10
2018-01-26T05:26:58.944Z,4.10
2018-01-26T05:29:27.245Z,4.10
2018-01-26T05:31:55.512Z,4.20
2018-01-26T05:34:23.889Z,4.10
2018-01-26T05:36:52.236Z,4.20
2018-01-26T05:39:20.504Z,4.10
2018-01-26T05:41:48.769Z,4.10
2018-01-26T05:44:17.036Z,4.10
2018-01-26T05:46:45.316Z,4.20
2018-01-26T05:49:13.592Z,4.10
2018-01-26T05:51:41.855Z,4.10
2018-01-26T05:54:10.137Z,4.00
2018-01-26T05:56:38.417Z,4.00
2018-01-26T05:59:06.686Z,4.00
2018-01-26T06:01:34.960Z,4.00
2018-01-26T06:04:03.292Z,4.00
2018-01-26T06:06:31.567Z,4.00
2018-01-26T06:08:59.849Z,4.00
2018-01-26T06:11:28.130Z,3.90
2018-01-26T06:13:56.384Z,3.90
2018-01-26T06:16:24.672Z,3.90
2018-01-26T06:18:52.948Z,3.80
2018-01-26T06:21:21.226Z,3.80
2018-01-26T06:23:49.489Z,3.80
2018-01-26T06:26:18.981Z,3.80
2018-01-26T06:28:47.053Z,3.70
2018-01-26T06:31:15.140Z,3.80
2018-01-26T06:33:43.404Z,3.80
2018-01-26T06:36:11.686Z,3.80
2018-01-26T06:38:39.953Z,3.80
2018-01-26T06:41:08.221Z,3.80
2018-01-26T06:43:36.521Z,3.80
2018-01-26T06:46:04.788Z,3.80
2018-01-26T06:48:33.089Z,3.80
2018-01-26T06:51:01.357Z,3.70
2018-01-26T06:53:29.768Z,3.80
2018-01-26T06:55:58.796Z,3.70
2018-01-26T06:58:27.074Z,3.80
2018-01-26T07:00:55.362Z,3.70
2018-01-26T07:03:23.645Z,3.80
2018-01-26T07:05:51.936Z,3.80
2018-01-26T07:08:19.859Z,3.80
2018-01-26T07:10:48.140Z,3.80
2018-01-26T07:13:16.420Z,3.70
2018-01-26T07:15:44.552Z,3.80
2018-01-26T07:18:12.905Z,3.80
2018-01-26T07:20:41.189Z,3.80
2018-01-26T07:23:09.281Z,3.80
2018-01-26T07:25:38.074Z,3.80
2018-01-26T07:28:06.334Z,3.90
2018-01-26T07:30:35.368Z,3.90
2018-01-26T07:33:03.647Z,3.80
2018-01-26T07:35:31.907Z,3.90
2018-01-26T07:38:00.215Z,3.90
2018-01-26T07:40:28.483Z,3.90
2018-01-26T07:42:56.770Z,3.90
2018-01-26T07:45:25.026Z,3.90
2018-01-26T07:47:53.308Z,3.80
2018-01-26T07:50:21.595Z,3.80
2018-01-26T07:52:49.539Z,3.80
2018-01-26T07:55:17.811Z,3.80
2018-01-26T07:57:46.098Z,3.90
2018-01-26T08:00:15.140Z,3.90
2018-01-26T08:02:43.432Z,3.80
2018-01-26T08:05:11.727Z,3.90
2018-01-26T08:07:39.968Z,3.80
2018-01-26T08:10:07.811Z,3.90
2018-01-26T08:12:36.067Z,3.70
2018-01-26T08:15:04.348Z,3.80
2018-01-26T08:17:32.620Z,3.80
2018-01-26T08:20:00.852Z,3.80
2018-01-26T08:22:29.121Z,3.80
2018-01-26T08:24:58.174Z,3.80
2018-01-26T08:27:26.452Z,3.80
2018-01-26T08:29:54.723Z,3.90
2018-01-26T08:32:23.157Z,3.90
2018-01-26T08:34:52.201Z,3.80
2018-01-26T08:37:20.457Z,3.80
2018-01-26T08:39:48.733Z,3.80
2018-01-26T08:42:17.002Z,3.80
2018-01-26T08:44:46.047Z,3.80
2018-01-26T08:47:14.331Z,3.80
2018-01-26T08:56:26.466Z,3.90
2018-01-26T08:58:54.749Z,4.10
2018-01-26T09:01:23.016Z,4.10
2018-01-26T09:03:51.306Z,4.20
2018-01-26T09:06:19.587Z,4.10
2018-01-26T09:08:47.871Z,4.10
2018-01-26T09:11:16.168Z,4.20
2018-01-26T09:13:44.440Z,4.30
2018-01-26T09:16:12.714Z,4.20
2018-01-26T09:18:40.985Z,4.30
2018-01-26T09:21:09.278Z,4.20
2018-01-26T09:23:37.537Z,4.20
2018-01-26T09:26:06.045Z,4.20
2018-01-26T09:28:34.301Z,4.30
2018-01-26T09:31:02.569Z,4.20
2018-01-26T09:33:30.848Z,4.10
2018-01-26T09:35:59.128Z,4.20
2018-01-26T09:38:27.407Z,4.20
2018-01-26T09:40:55.693Z,4.30
2018-01-26T09:43:23.965Z,4.40
2018-01-26T09:45:52.257Z,4.50
2018-01-26T09:48:20.534Z,4.60
2018-01-26T09:50:48.831Z,4.70
2018-01-26T09:53:17.104Z,4.70
2018-01-26T09:55:45.376Z,4.70
2018-01-26T09:58:13.683Z,4.80
2018-01-26T10:00:41.966Z,4.80
2018-01-26T10:03:10.230Z,4.80
2018-01-26T10:05:38.509Z,4.90
2018-01-26T10:08:06.792Z,4.90
2018-01-26T10:10:35.086Z,4.80
2018-01-26T10:13:03.370Z,4.90
2018-01-26T10:15:31.651Z,5.00
2018-01-26T10:17:59.911Z,5.10
2018-01-26T10:20:28.207Z,5.10
2018-01-26T10:22:56.475Z,5.20
2018-01-26T10:25:24.769Z,5.30
2018-01-26T10:27:52.854Z,5.30
2018-01-26T10:30:21.147Z,5.30
2018-01-26T10:32:49.424Z,5.40
2018-01-26T10:35:17.724Z,5.40
2018-01-26T10:37:45.997Z,5.50
2018-01-26T10:40:14.264Z,5.40
2018-01-26T10:42:42.549Z,5.50
2018-01-26T10:45:10.846Z,5.50
2018-01-26T10:47:39.117Z,5.60
2018-01-26T10:50:07.381Z,5.60
2018-01-26T10:52:35.653Z,5.70
2018-01-26T10:55:03.925Z,5.80
2018-01-26T10:57:32.223Z,5.60
2018-01-26T11:00:00.500Z,5.60
2018-01-26T11:02:28.800Z,5.60
2018-01-26T11:04:57.077Z,5.70
2018-01-26T11:07:25.362Z,5.60
2018-01-26T11:09:53.657Z,5.80
2018-01-26T11:12:22.722Z,6.00
2018-01-26T11:14:50.994Z,6.00
2018-01-26T11:17:19.275Z,6.00
2018-01-26T11:19:47.558Z,5.90
2018-01-26T11:22:16.218Z,6.00
2018-01-26T11:24:44.775Z,6.10
2018-01-26T11:27:13.804Z,6.20
2018-01-26T11:29:42.061Z,6.20
2018-01-26T11:32:11.101Z,6.30
2018-01-26T11:34:39.381Z,6.30
2018-01-26T11:37:07.690Z,6.30
2018-01-26T11:39:35.988Z,6.20
2018-01-26T11:42:04.246Z,6.20
2018-01-26T11:44:32.576Z,6.30
2018-01-26T11:47:01.609Z,6.60
2018-01-26T11:49:29.887Z,6.60
2018-01-26T11:51:58.170Z,6.70
2018-01-26T11:54:26.453Z,6.80
2018-01-26T11:56:54.756Z,6.80
2018-01-26T11:59:23.049Z,6.90
2018-01-26T12:01:51.322Z,7.10
2018-01-26T12:04:19.588Z,7.00
2018-01-26T12:06:48.645Z,7.00
2018-01-26T12:09:16.925Z,7.00
2018-01-26T12:11:45.215Z,7.20
2018-01-26T12:14:13.315Z,7.20
2018-01-26T12:16:41.632Z,7.30
2018-01-26T12:19:09.739Z,7.40
2018-01-26T12:21:37.826Z,7.50
2018-01-26T12:24:06.104Z,7.50
2018-01-26T12:26:34.376Z,7.50
2018-01-26T12:29:02.679Z,7.60
2018-01-26T12:31:30.786Z,7.60
2018-01-26T12:33:59.658Z,7.70
2018-01-26T12:36:27.930Z,7.70
2018-01-26T12:38:56.222Z,7.70
2018-01-26T12:41:24.498Z,7.80
2018-01-26T12:43:52.812Z,7.70
2018-01-26T12:46:21.090Z,7.80
2018-01-26T12:48:49.493Z,7.70
2018-01-26T12:51:17.782Z,7.90
2018-01-26T12:53:46.052Z,7.80
2018-01-26T12:56:14.345Z,7.80
2018-01-26T12:58:42.655Z,7.80
2018-01-26T13:01:10.999Z,7.80
2018-01-26T13:03:39.262Z,8.00
2018-01-26T13:06:07.706Z,7.90
2018-01-26T13:08:36.140Z,7.90
2018-01-26T13:11:04.460Z,7.90
2018-01-26T13:13:32.920Z,7.90
2018-01-26T13:16:01.221Z,8.00
2018-01-26T13:18:29.505Z,8.10
2018-01-26T13:20:57.788Z,8.20
2018-01-26T13:23:35.120Z,8.30
2018-01-26T13:26:03.400Z,8.30
2018-01-26T13:28:31.690Z,8.50
2018-01-26T13:30:59.976Z,8.70
2018-01-26T13:33:28.265Z,8.90
2018-01-26T13:35:56.537Z,9.00
2018-01-26T13:38:24.823Z,9.20
2018-01-26T13:40:53.116Z,9.30
2018-01-26T13:43:21.258Z,9.40
2018-01-26T13:45:49.543Z,9.50
2018-01-26T13:48:18.684Z,9.40
2018-01-26T13:50:46.993Z,9.40
2018-01-26T13:53:15.265Z,9.30
2018-01-26T13:55:43.543Z,9.30
2018-01-26T13:58:11.641Z,9.20
2018-01-26T14:00:39.924Z,9.10
2018-01-26T14:03:08.221Z,9.10
2018-01-26T14:05:36.537Z,9.00
2018-01-26T14:08:05.154Z,8.90
2018-01-26T14:10:33.430Z,8.80
2018-01-26T14:13:02.933Z,8.40
2018-01-26T14:15:31.996Z,8.30
2018-01-26T14:18:00.422Z,8.30
2018-01-26T14:20:28.714Z,8.20
2018-01-26T14:22:57.897Z,8.20
2018-01-26T14:25:26.976Z,8.10
2018-01-26T14:27:55.369Z,8.10
2018-01-26T14:30:25.040Z,8.20
2018-01-26T14:32:53.347Z,8.20
2018-01-26T14:35:21.628Z,8.20
2018-01-26T14:37:49.918Z,8.10
2018-01-26T14:40:18.204Z,8.10
2018-01-26T14:42:46.454Z,8.10
2018-01-26T14:45:14.734Z,8.00
2018-01-26T14:47:42.983Z,8.00
2018-01-26T14:50:11.295Z,8.00
2018-01-26T14:52:39.559Z,8.00
2018-01-26T14:55:08.085Z,8.00
2018-01-26T14:57:36.363Z,8.00
2018-01-26T15:00:04.054Z,8.00
2018-01-26T15:02:33.120Z,7.90
2018-01-26T15:05:01.404Z,7.90
2018-01-26T15:07:29.511Z,7.90
2018-01-26T15:09:57.784Z,7.80
2018-01-26T15:12:26.287Z,7.80
2018-01-26T15:14:54.665Z,7.70
2018-01-26T15:17:22.963Z,7.70
2018-01-26T15:19:51.250Z,7.70
2018-01-26T15:22:19.538Z,7.70
2018-01-26T15:24:47.847Z,7.70
2018-01-26T15:27:16.141Z,7.60
2018-01-26T15:29:44.429Z,7.50
2018-01-26T15:32:12.864Z,7.50
2018-01-26T15:34:41.326Z,7.40
2018-01-26T15:37:09.443Z,7.40
2018-01-26T15:39:37.937Z,7.40
2018-01-26T15:42:06.428Z,7.30
2018-01-26T15:44:34.866Z,7.30
2018-01-26T15:47:03.570Z,7.30
2018-01-26T15:49:31.829Z,7.30
2018-01-26T15:52:00.134Z,7.30
2018-01-26T15:54:28.438Z,7.30
2018-01-26T15:56:56.743Z,7.20
2018-01-26T15:59:25.018Z,7.30
2018-01-26T16:01:53.444Z,7.20
2018-01-26T16:04:21.754Z,7.20
2018-01-26T16:06:50.037Z,7.20
2018-01-26T16:09:18.418Z,7.20
2018-01-26T16:11:46.702Z,7.20
2018-01-26T16:14:14.962Z,7.30
2018-01-26T16:16:42.520Z,7.30
2018-01-26T16:19:11.565Z,7.20
2018-01-26T16:21:39.921Z,7.20
2018-01-26T16:24:08.187Z,7.20
2018-01-26T16:26:36.530Z,7.20
2018-01-26T16:29:04.860Z,7.10
2018-01-26T16:31:33.157Z,7.10
2018-01-26T16:34:00.893Z,7.10
2018-01-26T16:36:29.962Z,7.10
2018-01-26T16:38:58.258Z,7.00
2018-01-26T16:41:26.549Z,6.90
2018-01-26T16:43:55.072Z,6.80
2018-01-26T16:46:23.047Z,6.80
2018-01-26T16:48:51.462Z,6.80
2018-01-26T16:51:19.445Z,6.80
2018-01-26T16:53:47.735Z,6.80
2018-01-26T16:56:16.135Z,6.80
2018-01-26T16:58:44.415Z,6.80
2018-01-26T17:01:12.724Z,6.80
2018-01-26T17:03:41.160Z,6.80
2018-01-26T17:06:11.299Z,6.80
2018-01-26T17:08:39.599Z,6.70
2018-01-26T17:11:08.106Z,6.60
2018-01-26T17:13:36.419Z,6.70
2018-01-26T17:16:04.710Z,6.60
2018-01-26T17:18:32.777Z,6.60
2018-01-26T17:21:01.087Z,6.60
2018-01-26T17:23:29.362Z,6.50
2018-01-26T17:25:57.672Z,6.50
2018-01-26T17:28:25.977Z,6.60
2018-01-26T17:30:54.324Z,6.60
2018-01-26T17:33:23.388Z,6.60
2018-01-26T17:38:34.399Z,6.60
2018-01-26T17:41:02.686Z,6.60
2018-01-26T17:43:31.026Z,6.60
2018-01-26T17:45:59.361Z,6.60
2018-01-26T17:48:28.441Z,6.60
2018-01-26T17:50:58.079Z,6.50
2018-01-26T17:53:28.319Z,6.60
2018-01-26T17:55:56.634Z,6.50
2018-01-26T17:58:24.949Z,6.50
2018-01-26T18:00:53.261Z,6.50
2018-01-26T18:03:21.056Z,6.50
2018-01-26T18:05:49.342Z,6.50
2018-01-26T18:08:17.092Z,6.50
2018-01-26T18:10:45.170Z,6.50
2018-01-26T18:13:12.966Z,6.40
2018-01-26T18:15:41.265Z,6.40
2018-01-26T18:18:09.587Z,6.40
2018-01-26T18:20:37.903Z,6.40
2018-01-26T18:23:06.227Z,6.40
2018-01-26T18:25:34.708Z,6.30
2018-01-26T18:28:03.064Z,6.30
2018-01-26T18:30:31.395Z,6.30
2018-01-26T18:32:59.823Z,6.30
2018-01-26T18:35:28.197Z,6.30
2018-01-26T18:37:56.326Z,6.30
2018-01-26T18:40:24.750Z,6.30
2018-01-26T18:42:53.167Z,6.20
2018-01-26T18:45:21.291Z,6.20
2018-01-26T18:47:50.373Z,6.10
2018-01-26T18:50:18.701Z,6.10
2018-01-26T18:52:46.992Z,6.10
2018-01-26T18:55:15.371Z,6.10
2018-01-26T18:57:43.646Z,6.00
2018-01-26T19:00:11.956Z,6.00
2018-01-26T19:02:40.278Z,5.90
2018-01-26T19:05:08.568Z,5.90
2018-01-26T19:07:36.988Z,5.90
2018-01-26T19:10:05.307Z,6.00
2018-01-26T19:12:33.631Z,6.00
2018-01-26T19:15:02.014Z,5.90
2018-01-26T19:17:30.352Z,5.80
2018-01-26T19:19:58.973Z,5.80
2018-01-26T19:22:28.051Z,5.60
2018-01-26T19:24:56.336Z,5.60
2018-01-26T19:27:24.658Z,5.50
2018-01-26T19:29:53.032Z,5.40
2018-01-26T19:32:21.321Z,5.30
2018-01-26T19:34:49.639Z,5.20
2018-01-26T19:37:18.122Z,5.20
2018-01-26T19:39:46.435Z,5.10
2018-01-26T19:42:15.567Z,5.00
2018-01-26T19:44:43.894Z,5.00
2018-01-26T19:47:12.244Z,5.00
2018-01-26T19:49:40.622Z,4.80
2018-01-26T19:52:08.926Z,4.70
2018-01-26T19:54:37.275Z,4.60
2018-01-26T19:57:05.692Z,4.50
2018-01-26T19:59:33.969Z,4.40
2018-01-26T20:02:02.376Z,4.30
2018-01-26T20:04:36.251Z,4.30
2018-01-26T20:07:21.230Z,4.30
2018-01-26T20:09:49.534Z,4.20
2018-01-26T20:12:17.895Z,4.20
2018-01-26T20:14:46.019Z,4.30
2018-01-26T20:17:14.529Z,4.40
2018-01-26T20:19:43.021Z,4.50
2018-01-26T20:22:11.301Z,4.70
2018-01-26T20:24:40.112Z,4.80
2018-01-26T20:27:08.088Z,4.90
2018-01-26T20:29:36.400Z,5.00
2018-01-26T20:32:04.702Z,5.10
2018-01-26T20:34:32.994Z,5.20
2018-01-26T20:37:01.315Z,5.30
2018-01-26T20:39:29.614Z,5.40
2018-01-26T20:41:57.932Z,5.40
2018-01-26T20:44:26.237Z,5.40
2018-01-26T20:46:54.546Z,5.50
2018-01-26T20:49:22.856Z,5.50
2018-01-26T20:51:51.956Z,5.50
2018-01-26T20:54:20.292Z,5.50
2018-01-26T20:56:48.033Z,5.50
2018-01-26T20:59:18.375Z,5.50
2018-01-26T21:01:46.319Z,5.50
2018-01-26T21:04:14.597Z,5.60
2018-01-26T21:06:42.875Z,5.60
2018-01-26T21:09:11.160Z,5.50
2018-01-26T21:11:39.872Z,5.50
2018-01-26T21:14:08.148Z,5.60
2018-01-26T21:16:36.412Z,5.50
2018-01-26T21:19:05.480Z,5.30
2018-01-26T21:21:33.534Z,5.30
2018-01-26T21:24:01.849Z,5.10
2018-01-26T21:26:30.121Z,4.90
2018-01-26T21:28:58.478Z,4.80
2018-01-26T21:31:26.788Z,4.70
2018-01-26T21:33:55.081Z,4.60
2018-01-26T21:36:23.376Z,4.60
2018-01-26T21:38:52.445Z,4.50
2018-01-26T21:41:20.755Z,4.50
2018-01-26T21:43:49.919Z,4.40
2018-01-26T21:46:18.204Z,4.40
2018-01-26T21:48:46.512Z,4.40
2018-01-26T21:51:14.910Z,4.60
2018-01-26T21:53:43.957Z,4.70
2018-01-26T21:56:12.223Z,4.70
2018-01-26T21:58:40.532Z,4.80
2018-01-26T22:01:08.917Z,4.80
2018-01-26T22:03:37.024Z,4.90
2018-01-26T22:06:10.761Z,4.90
2018-01-26T22:08:39.219Z,4.90
2018-01-26T22:11:08.094Z,5.00
2018-01-26T22:13:36.376Z,5.00
2018-01-26T22:16:04.669Z,5.00
2018-01-26T22:18:32.812Z,5.10
2018-01-26T22:21:00.538Z,5.10
2018-01-26T22:23:29.287Z,5.20
2018-01-26T22:25:57.599Z,5.20
2018-01-26T22:28:26.707Z,5.30
2018-01-26T22:30:55.779Z,5.30
2018-01-26T22:33:24.069Z,5.30
2018-01-26T22:35:52.406Z,5.40
2018-01-26T22:38:20.737Z,5.40
2018-01-26T22:40:49.802Z,5.50
2018-01-26T22:43:18.598Z,5.40
2018-01-26T22:45:46.305Z,5.50
2018-01-26T22:48:14.570Z,5.50
2018-01-26T22:50:42.865Z,5.50
2018-01-26T22:53:11.169Z,5.50
2018-01-26T22:55:39.486Z,5.60
2018-01-26T22:58:07.605Z,5.60
2018-01-26T23:00:35.914Z,5.60
2018-01-26T23:03:04.471Z,5.60
2018-01-26T23:05:33.540Z,5.70
2018-01-26T23:08:01.826Z,5.60
2018-01-26T23:10:30.107Z,5.60
2018-01-26T23:12:58.400Z,5.60
2018-01-26T23:15:26.864Z,5.70
2018-01-26T23:17:55.204Z,5.70
2018-01-26T23:20:22.915Z,5.60
2018-01-26T23:22:51.202Z,5.60
2018-01-26T23:25:19.536Z,5.60
2018-01-26T23:27:47.990Z,5.60
2018-01-26T23:30:16.440Z,5.60
2018-01-26T23:32:44.708Z,5.70
2018-01-26T23:35:13.010Z,5.60
2018-01-26T23:37:41.284Z,5.60
2018-01-26T23:40:09.573Z,5.60
2018-01-26T23:42:37.963Z,5.60
2018-01-26T23:45:06.263Z,5.60
2018-01-26T23:47:34.537Z,5.60
2018-01-26T23:50:02.817Z,5.60
2018-01-26T23:52:31.116Z,5.30
2018-01-26T23:54:59.383Z,5.20
2018-01-26T23:57:27.676Z,5.00
2018-01-26T23:59:55.950Z,4.90
